Time;durP1;ratioP1;P1;durP2;ratioP2;P2;SDS_P1;SDS_P2;PMS_P1;PMS_P2;Temp;Humidity;BMP_temperature;BMP_pressure;BME280_temperature;BME280_humidity;BME280_pressure;Samples;Min_cycle;Max_cycle;Signal;HPM_P1;HPM_P2
2023/09/14 00:01:03;;;;;;;6.57;2.72;;;14.00;99.90;;;;;;4959171;28;20185;-86
2023/09/14 00:03:28;;;;;;;4.72;2.58;;;14.40;99.90;;;;;;4958454;28;20227;-86
2023/09/14 00:05:54;;;;;;;4.82;2.50;;;13.90;99.90;;;;;;4959039;28;20641;-86
2023/09/14 00:08:21;;;;;;;3.42;2.80;;;14.40;99.90;;;;;;4958991;28;20200;-86
2023/09/14 00:10:53;;;;;;;4.88;2.75;;;14.10;99.90;;;;;;4953633;28;20205;-86
2023/09/14 00:13:19;;;;;;;4.40;2.47;;;13.90;99.90;;;;;;4958529;28;20268;-86
2023/09/14 00:15:45;;;;;;;4.30;2.90;;;14.10;99.90;;;;;;4976039;28;20185;-86
2023/09/14 00:18:10;;;;;;;3.75;2.22;;;13.80;99.90;;;;;;4976001;28;20248;-86
2023/09/14 00:20:36;;;;;;;3.88;2.40;;;13.80;99.90;;;;;;4958453;28;20177;-86
2023/09/14 00:23:03;;;;;;;5.07;2.63;;;14.00;93.90;;;;;;4958215;28;20220;-86
2023/09/14 00:25:29;;;;;;;4.03;2.50;;;13.60;99.90;;;;;;4957997;28;20193;-86
2023/09/14 00:27:54;;;;;;;4.40;2.67;;;14.10;99.90;;;;;;4958553;28;20261;-86
2023/09/14 00:30:22;;;;;;;4.20;2.38;;;13.60;99.90;;;;;;4958492;28;20232;-86
2023/09/14 00:32:50;;;;;;;3.70;2.70;;;13.80;99.90;;;;;;4974272;28;20736;-87
2023/09/14 00:35:18;;;;;;;3.80;2.22;;;13.70;99.90;;;;;;4975775;28;20216;-86
2023/09/14 00:37:44;;;;;;;3.38;2.33;;;14.30;99.90;;;;;;4973769;28;20668;-86
2023/09/14 00:40:11;;;;;;;3.30;2.35;;;14.00;99.90;;;;;;4975368;28;20177;-87
2023/09/14 00:42:43;;;;;;;4.40;2.33;;;13.60;99.90;;;;;;4974017;28;20188;-86
2023/09/14 00:45:12;;;;;;;3.72;2.60;;;13.60;99.90;;;;;;4974917;28;20193;-86
2023/09/14 00:47:47;;;;;;;2.95;2.42;;;13.50;99.90;;;;;;4958640;28;20571;-86
2023/09/14 00:50:15;;;;;;;4.40;2.33;;;13.50;99.90;;;;;;4958982;28;20216;-86
2023/09/14 00:52:42;;;;;;;5.15;2.50;;;13.60;99.90;;;;;;4966406;28;20209;-86
2023/09/14 00:55:09;;;;;;;6.78;2.78;;;13.50;99.90;;;;;;4967281;28;20181;-86
2023/09/14 00:57:36;;;;;;;4.95;2.83;;;13.50;99.90;;;;;;4959471;28;20265;-86
2023/09/14 01:00:10;;;;;;;4.75;2.13;;;13.80;99.90;;;;;;4959017;28;20183;-86
2023/09/14 01:02:36;;;;;;;3.95;2.25;;;13.60;99.90;;;;;;4958589;28;20565;-86
2023/09/14 01:05:03;;;;;;;4.80;2.25;;;13.50;99.90;;;;;;4958585;28;20237;-87
2023/09/14 01:07:29;;;;;;;4.35;2.17;;;13.60;91.80;;;;;;4958610;28;20196;-87
2023/09/14 01:09:55;;;;;;;4.60;2.45;;;13.80;97.40;;;;;;4958147;28;20269;-86
2023/09/14 01:12:21;;;;;;;4.25;2.47;;;13.70;90.10;;;;;;4975641;28;20810;-87
2023/09/14 01:15:23;;;;;;;6.57;2.70;;;13.50;99.90;;;;;;4958715;28;20213;-86
2023/09/14 01:18:06;;;;;;;12.90;2.53;;;13.50;99.90;;;;;;4929059;28;20200;-86
2023/09/14 01:20:41;;;;;;;4.07;2.25;;;13.50;99.90;;;;;;4958391;28;20192;-87
2023/09/14 01:23:43;;;;;;;4.22;2.35;;;13.50;99.90;;;;;;4973095;28;20215;-86
2023/09/14 01:26:09;;;;;;;3.83;2.13;;;13.40;99.90;;;;;;4920331;28;20774;-86
2023/09/14 01:28:35;;;;;;;3.95;2.22;;;13.40;99.90;;;;;;4974874;28;20189;-86
2023/09/14 01:31:01;;;;;;;5.25;2.10;;;13.60;99.90;;;;;;4975577;28;20205;-86
2023/09/14 01:33:29;;;;;;;4.40;2.47;;;13.60;64.10;;;;;;4957838;28;20307;-86
2023/09/14 01:36:10;;;;;;;4.07;2.30;;;13.40;62.60;;;;;;4958227;28;20209;-87
2023/09/14 01:38:37;;;;;;;6.93;2.15;;;13.30;99.90;;;;;;4964976;28;20181;-86
2023/09/14 01:41:03;;;;;;;5.32;2.38;;;13.20;99.90;;;;;;4958491;28;20204;-86
2023/09/14 01:43:30;;;;;;;3.90;2.08;;;13.30;99.90;;;;;;4957949;28;20204;-87
2023/09/14 01:45:56;;;;;;;4.93;2.10;;;13.40;99.90;;;;;;4958729;28;20691;-87
2023/09/14 01:48:22;;;;;;;5.97;2.42;;;13.30;99.90;;;;;;4958403;28;20292;-86
2023/09/14 01:50:48;;;;;;;2.65;1.90;;;13.40;88.70;;;;;;4958234;28;20204;-86
2023/09/14 01:53:14;;;;;;;3.75;2.20;;;13.60;84.00;;;;;;4958326;28;20208;-86
2023/09/14 01:55:40;;;;;;;4.93;2.10;;;13.30;99.90;;;;;;4957162;28;20180;-86
2023/09/14 01:58:05;;;;;;;6.30;2.08;;;13.40;87.60;;;;;;4956198;28;20568;-86
2023/09/14 02:00:32;;;;;;;4.80;2.05;;;13.40;99.90;;;;;;4956079;28;20657;-87
2023/09/14 02:02:57;;;;;;;5.70;2.00;;;13.30;73.40;;;;;;4955210;28;20185;-87
2023/09/14 02:05:23;;;;;;;7.88;2.30;;;13.40;46.30;;;;;;4955699;28;20185;-86
2023/09/14 02:07:49;;;;;;;4.35;2.05;;;13.20;87.90;;;;;;4955577;28;20212;-86
2023/09/14 02:10:15;;;;;;;5.43;1.95;;;13.30;98.00;;;;;;4972721;28;20196;-87
2023/09/14 02:12:40;;;;;;;3.35;1.83;;;13.20;76.90;;;;;;4955383;28;20205;-86
2023/09/14 02:15:10;;;;;;;3.72;2.05;;;13.10;90.10;;;;;;4955889;28;20201;-86
2023/09/14 02:17:36;;;;;;;5.05;2.20;;;13.10;99.90;;;;;;4956173;28;20193;-86
2023/09/14 02:20:02;;;;;;;6.78;2.10;;;13.30;89.60;;;;;;4955870;28;20192;-86
2023/09/14 02:22:28;;;;;;;6.72;2.35;;;13.10;61.50;;;;;;4955449;28;20280;-86
2023/09/14 02:24:54;;;;;;;2.35;1.73;;;13.40;69.30;;;;;;4955080;28;20333;-87
2023/09/14 02:27:19;;;;;;;6.38;2.00;;;13.10;99.90;;;;;;4955410;28;20192;-87
2023/09/14 02:29:45;;;;;;;4.18;1.95;;;13.10;99.90;;;;;;4950554;28;20759;-87
2023/09/14 02:32:10;;;;;;;4.13;1.90;;;13.10;91.30;;;;;;4954741;28;20216;-88
2023/09/14 02:34:36;;;;;;;3.60;2.20;;;13.60;66.60;;;;;;4954943;28;20319;-88
2023/09/14 02:37:02;;;;;;;3.42;1.70;;;13.20;90.10;;;;;;4955304;28;20185;-86
2023/09/14 02:39:28;;;;;;;7.60;1.90;;;13.00;49.40;;;;;;4971525;28;20180;-86
2023/09/14 02:41:54;;;;;;;5.43;2.17;;;12.90;56.70;;;;;;4955643;28;20185;-86
2023/09/14 02:44:19;;;;;;;2.95;1.80;;;12.90;54.90;;;;;;4955532;28;20626;-86
2023/09/14 02:46:45;;;;;;;4.38;1.98;;;13.20;93.00;;;;;;4957231;28;20193;-86
2023/09/14 02:49:10;;;;;;;3.53;1.83;;;12.90;43.00;;;;;;4962121;28;20188;-86
2023/09/14 02:51:36;;;;;;;4.38;1.90;;;13.20;47.60;;;;;;4962308;28;20256;-86
2023/09/14 02:54:02;;;;;;;7.05;1.67;;;12.90;99.90;;;;;;4962045;28;20240;-86
2023/09/14 02:56:28;;;;;;;5.13;1.88;;;12.90;99.90;;;;;;4961659;28;20181;-86
2023/09/14 02:58:53;;;;;;;5.72;1.90;;;13.00;58.10;;;;;;4979062;28;20191;-85
2023/09/14 03:01:20;;;;;;;6.78;1.77;;;13.10;40.10;;;;;;4961423;28;20779;-86
2023/09/14 03:03:47;;;;;;;3.35;2.05;;;12.90;82.50;;;;;;4961121;28;20204;-86
2023/09/14 03:06:12;;;;;;;3.75;1.80;;;13.00;1.00;;;;;;4961930;28;20185;-86
2023/09/14 03:08:38;;;;;;;4.13;1.80;;;13.60;1.00;;;;;;4961587;28;20660;-85
2023/09/14 03:11:04;;;;;;;4.03;1.60;;;12.90;32.80;;;;;;4961607;28;20210;-85
2023/09/14 03:13:30;;;;;;;5.03;1.95;;;13.30;28.80;;;;;;4961182;28;20204;-85
2023/09/14 03:15:58;;;;;;;4.50;1.58;;;13.00;48.40;;;;;;4961748;28;20188;-85
2023/09/14 03:18:24;;;;;;;4.25;2.13;;;13.00;48.70;;;;;;4977400;28;20191;-86
2023/09/14 03:20:52;;;;;;;3.33;2.10;;;12.90;78.20;;;;;;4961624;28;20188;-86
2023/09/14 03:23:18;;;;;;;2.50;1.48;;;13.50;63.20;;;;;;4960978;28;20248;-85
2023/09/14 03:25:44;;;;;;;4.82;1.60;;;12.80;96.80;;;;;;4961478;28;20192;-86
2023/09/14 03:28:10;;;;;;;3.88;1.70;;;12.80;99.90;;;;;;4961201;28;20192;-86
2023/09/14 03:30:36;;;;;;;4.13;1.73;;;12.90;99.90;;;;;;4961556;28;20181;-86
2023/09/14 03:33:02;;;;;;;4.40;1.60;;;12.90;59.10;;;;;;4961305;28;21669;-86
2023/09/14 03:35:28;;;;;;;4.50;1.67;;;12.90;34.80;;;;;;4956089;28;20208;-86
2023/09/14 03:37:53;;;;;;;3.95;1.92;;;13.20;42.50;;;;;;4961701;28;20324;-86
2023/09/14 03:40:19;;;;;;;3.95;2.17;;;12.90;67.70;;;;;;4963618;28;20185;-86
2023/09/14 03:42:44;;;;;;;6.88;1.77;;;12.80;71.70;;;;;;4963181;28;20272;-87
2023/09/14 03:45:10;;;;;;;4.93;1.70;;;12.80;81.10;;;;;;4963998;28;20273;-86
2023/09/14 03:47:36;;;;;;;3.22;1.63;;;12.90;91.40;;;;;;4963781;28;20196;-86
2023/09/14 03:50:02;;;;;;;3.97;1.93;;;12.80;77.50;;;;;;4981865;28;20425;-86
2023/09/14 03:52:27;;;;;;;6.50;2.00;;;12.80;99.90;;;;;;4981018;28;20581;-86
2023/09/14 03:54:53;;;;;;;6.28;2.00;;;12.80;92.00;;;;;;4963684;28;20209;-85
2023/09/14 03:57:19;;;;;;;6.68;1.90;;;13.30;82.70;;;;;;4980857;28;20172;-86
2023/09/14 03:59:46;;;;;;;4.97;1.90;;;12.80;44.90;;;;;;4958672;28;20223;-85
2023/09/14 04:02:12;;;;;;;6.72;1.90;;;13.40;13.30;;;;;;4977642;28;20673;-86
2023/09/14 04:04:41;;;;;;;3.60;2.03;;;13.40;46.00;;;;;;4959696;28;20209;-86
2023/09/14 04:07:07;;;;;;;4.88;1.90;;;12.70;27.00;;;;;;4959147;28;20618;-86
2023/09/14 04:09:33;;;;;;;4.80;1.77;;;13.00;49.20;;;;;;4977447;28;20192;-88
2023/09/14 04:11:59;;;;;;;5.50;1.90;;;12.80;41.60;;;;;;4960108;28;20217;-86
2023/09/14 04:14:24;;;;;;;4.15;1.95;;;13.20;68.30;;;;;;4959645;28;20216;-85
2023/09/14 04:16:51;;;;;;;4.37;2.00;;;12.70;67.40;;;;;;4959562;28;20402;-86
2023/09/14 04:19:17;;;;;;;3.58;1.90;;;12.70;60.20;;;;;;4959518;28;20716;-86
2023/09/14 04:21:43;;;;;;;5.35;2.33;;;12.90;58.60;;;;;;4959074;28;20926;-85
2023/09/14 04:24:09;;;;;;;3.38;2.05;;;13.40;76.40;;;;;;4959075;28;20216;-86
2023/09/14 04:26:35;;;;;;;5.40;2.38;;;12.70;73.70;;;;;;4977630;28;20665;-87
2023/09/14 04:29:01;;;;;;;6.35;2.17;;;12.70;60.50;;;;;;4959840;28;20601;-86
2023/09/14 04:31:27;;;;;;;7.78;2.10;;;12.70;99.90;;;;;;4956956;28;20256;-86
2023/09/14 04:33:52;;;;;;;6.20;2.92;;;13.10;99.90;;;;;;4956768;28;20284;-86
2023/09/14 04:36:18;;;;;;;5.88;2.13;;;13.10;99.90;;;;;;4956829;28;20268;-85
2023/09/14 04:38:44;;;;;;;7.65;2.33;;;12.60;99.90;;;;;;4956738;28;20527;-86
2023/09/14 04:41:09;;;;;;;5.85;2.10;;;12.90;90.40;;;;;;4956817;28;20599;-85
2023/09/14 04:43:36;;;;;;;5.57;2.58;;;12.70;99.90;;;;;;4952038;28;21079;-85
2023/09/14 04:46:06;;;;;;;7.22;2.80;;;12.80;77.40;;;;;;4974278;28;20661;-85
2023/09/14 04:48:32;;;;;;;6.28;2.30;;;12.70;98.10;;;;;;4957211;28;20203;-85
2023/09/14 04:50:59;;;;;;;6.30;2.20;;;12.60;99.90;;;;;;4957174;28;20693;-86
2023/09/14 04:53:27;;;;;;;6.53;2.50;;;12.60;99.90;;;;;;4956719;28;20204;-86
2023/09/14 04:55:53;;;;;;;5.93;2.70;;;12.70;99.90;;;;;;4956939;28;20173;-87
2023/09/14 04:58:19;;;;;;;7.53;2.42;;;13.00;98.00;;;;;;4974245;28;20188;-86
2023/09/14 05:00:48;;;;;;;7.88;2.70;;;12.60;99.90;;;;;;4974122;28;20561;-85
2023/09/14 05:03:14;;;;;;;7.88;2.90;;;12.60;99.90;;;;;;4973962;28;20685;-86
2023/09/14 05:05:40;;;;;;;5.57;2.67;;;12.60;91.60;;;;;;4956971;28;20216;-86
2023/09/14 05:08:06;;;;;;;5.78;2.60;;;12.80;91.70;;;;;;4956895;28;20300;-86
2023/09/14 05:10:32;;;;;;;6.10;2.50;;;12.60;44.20;;;;;;4956359;28;20189;-86
2023/09/14 05:12:57;;;;;;;5.28;2.75;;;12.60;92.70;;;;;;4956243;28;20619;-87
2023/09/14 05:15:25;;;;;;;6.50;2.63;;;12.40;99.90;;;;;;4973949;28;20220;-87
2023/09/14 05:17:51;;;;;;;6.32;2.63;;;12.30;68.00;;;;;;4957719;28;20731;-88
2023/09/14 05:20:17;;;;;;;6.32;2.70;;;12.70;99.90;;;;;;4957459;28;20288;-87
2023/09/14 05:22:43;;;;;;;4.82;2.60;;;12.40;99.90;;;;;;4957105;28;20217;-87
2023/09/14 05:25:09;;;;;;;4.85;2.10;;;12.40;67.50;;;;;;4957172;28;20189;-87
2023/09/14 05:27:38;;;;;;;4.97;2.35;;;12.40;52.10;;;;;;4957296;28;20601;-87
2023/09/14 05:30:05;;;;;;;5.15;2.17;;;12.90;19.20;;;;;;4964319;28;20188;-88
2023/09/14 05:32:31;;;;;;;9.80;2.38;;;12.40;64.30;;;;;;4957163;28;20201;-87
2023/09/14 05:34:57;;;;;;;5.43;2.42;;;12.50;9.00;;;;;;4957427;28;20204;-88
2023/09/14 05:37:23;;;;;;;3.80;1.90;;;12.50;19.40;;;;;;4972192;28;20208;-88
2023/09/14 05:39:48;;;;;;;3.20;2.08;;;12.50;56.50;;;;;;4957140;28;20200;-87
2023/09/14 05:42:14;;;;;;;7.30;2.60;;;12.80;21.00;;;;;;4957326;28;20279;-88
2023/09/14 05:44:39;;;;;;;5.68;2.33;;;12.60;34.60;;;;;;4952447;28;20220;-88
2023/09/14 05:47:05;;;;;;;7.47;2.70;;;12.80;14.90;;;;;;4956858;28;20192;-88
2023/09/14 05:49:31;;;;;;;3.83;2.22;;;12.60;5.00;;;;;;4974740;28;20192;-87
2023/09/14 05:51:58;;;;;;;5.72;2.45;;;12.90;13.40;;;;;;4956306;28;20684;-86
2023/09/14 05:54:23;;;;;;;3.33;2.10;;;12.90;24.00;;;;;;4973578;28;20292;-87
2023/09/14 05:56:49;;;;;;;6.18;2.67;;;13.00;1.00;;;;;;4976483;28;20284;-87
2023/09/14 05:59:18;;;;;;;4.72;2.10;;;13.30;1.90;;;;;;4958800;28;20196;-87
2023/09/14 06:01:44;;;;;;;5.10;2.55;;;12.80;1.00;;;;;;4970730;28;20677;-86
2023/09/14 06:04:09;;;;;;;3.97;2.20;;;12.80;8.60;;;;;;4954727;28;20264;-87
2023/09/14 06:06:35;;;;;;;5.03;2.35;;;12.80;7.60;;;;;;4974608;28;20189;-87
2023/09/14 06:09:01;;;;;;;4.13;2.38;;;13.00;16.40;;;;;;4975845;28;20241;-87
2023/09/14 06:11:27;;;;;;;5.70;2.00;;;13.00;3.90;;;;;;4956785;28;20205;-86
2023/09/14 06:13:54;;;;;;;4.47;2.40;;;12.90;19.00;;;;;;4957165;28;20681;-87
2023/09/14 06:16:21;;;;;;;5.88;2.40;;;12.90;8.60;;;;;;4971676;28;20577;-87
2023/09/14 06:18:46;;;;;;;6.03;2.33;;;13.00;18.00;;;;;;4956719;28;20173;-88
2023/09/14 06:21:13;;;;;;;7.05;2.63;;;13.00;16.40;;;;;;4955931;28;20815;-88
2023/09/14 06:23:40;;;;;;;6.18;2.20;;;12.90;14.40;;;;;;4955954;28;20224;-89
2023/09/14 06:26:05;;;;;;;4.95;2.58;;;13.20;30.60;;;;;;4956350;28;20671;-87
2023/09/14 06:28:31;;;;;;;5.60;2.50;;;12.80;77.30;;;;;;4956143;28;20212;-87
2023/09/14 06:30:58;;;;;;;6.95;3.10;;;13.00;95.00;;;;;;4956457;28;20196;-87
2023/09/14 06:33:23;;;;;;;8.65;3.05;;;12.90;96.80;;;;;;4956022;28;20211;-87
2023/09/14 06:35:49;;;;;;;7.22;3.15;;;13.00;95.30;;;;;;4973711;28;20181;-87
2023/09/14 06:38:15;;;;;;;10.65;2.80;;;13.10;99.90;;;;;;4973488;28;20668;-86
2023/09/14 06:40:40;;;;;;;8.65;2.92;;;13.30;99.90;;;;;;4956641;28;20204;-87
2023/09/14 06:43:07;;;;;;;7.30;2.90;;;13.30;99.90;;;;;;4953082;28;20208;-88
2023/09/14 06:45:33;;;;;;;7.25;2.92;;;13.20;99.90;;;;;;4963814;28;20184;-89
2023/09/14 06:47:59;;;;;;;9.60;3.42;;;13.40;99.90;;;;;;4953751;28;20181;-88
2023/09/14 06:50:25;;;;;;;7.25;2.90;;;13.10;99.90;;;;;;4953768;28;20192;-87
2023/09/14 06:52:51;;;;;;;8.27;3.67;;;13.20;99.90;;;;;;4953457;28;20208;-87
2023/09/14 06:55:16;;;;;;;5.30;2.88;;;13.00;99.90;;;;;;4954054;28;20531;-86
2023/09/14 06:57:42;;;;;;;7.13;3.35;;;13.10;99.90;;;;;;4953694;28;20189;-86
2023/09/14 07:00:15;;;;;;;5.63;2.70;;;13.20;99.90;;;;;;4970632;28;20177;-85
2023/09/14 07:02:41;;;;;;;7.40;2.80;;;13.20;99.90;;;;;;4969013;28;20189;-87
2023/09/14 07:05:08;;;;;;;6.85;2.92;;;13.30;99.90;;;;;;4967117;28;20201;-87
2023/09/14 07:07:33;;;;;;;9.82;3.10;;;13.20;99.90;;;;;;4954277;28;20185;-86
2023/09/14 07:09:59;;;;;;;8.10;2.65;;;13.30;99.90;;;;;;4953208;28;20364;-87
2023/09/14 07:12:25;;;;;;;5.93;2.63;;;13.60;99.90;;;;;;4970490;28;20747;-86
2023/09/14 07:14:50;;;;;;;5.60;2.53;;;13.50;99.90;;;;;;4953223;28;20216;-86
2023/09/14 07:17:16;;;;;;;6.65;3.03;;;13.70;99.90;;;;;;4953534;28;20184;-86
2023/09/14 07:19:42;;;;;;;9.55;3.40;;;13.60;99.90;;;;;;4953467;28;20227;-87
2023/09/14 07:22:08;;;;;;;7.78;2.67;;;13.60;99.90;;;;;;4971367;28;20320;-86
2023/09/14 07:24:33;;;;;;;6.43;3.22;;;13.70;99.90;;;;;;4951592;28;20216;-86
2023/09/14 07:26:59;;;;;;;6.10;2.33;;;13.70;99.90;;;;;;4950788;28;20277;-86
2023/09/14 07:29:26;;;;;;;6.32;2.08;;;13.70;99.90;;;;;;4954368;28;20216;-85
2023/09/14 07:31:52;;;;;;;5.28;2.40;;;13.60;99.90;;;;;;4969845;28;20685;-86
2023/09/14 07:34:17;;;;;;;5.93;2.58;;;13.70;99.90;;;;;;4950350;28;20216;-86
2023/09/14 07:36:43;;;;;;;5.60;2.30;;;13.60;99.90;;;;;;4956220;28;20177;-86
2023/09/14 07:39:09;;;;;;;5.05;1.80;;;13.80;99.90;;;;;;4957159;28;20191;-87
2023/09/14 07:41:34;;;;;;;4.60;2.10;;;13.80;10.30;;;;;;4956828;28;20192;-85
2023/09/14 07:44:02;;;;;;;8.32;2.15;;;13.90;99.90;;;;;;4956336;28;20204;-88
2023/09/14 07:46:27;;;;;;;4.45;2.03;;;14.00;41.10;;;;;;4972944;28;20184;-85
2023/09/14 07:48:53;;;;;;;6.65;2.00;;;13.90;1.00;;;;;;4955238;28;20268;-85
2023/09/14 07:51:18;;;;;;;6.55;1.88;;;14.30;26.50;;;;;;4972759;28;20684;-87
2023/09/14 07:53:44;;;;;;;6.90;1.65;;;14.00;31.20;;;;;;4972828;28;20216;-84
2023/09/14 07:56:10;;;;;;;2.92;1.40;;;14.20;1.00;;;;;;4955153;28;20180;-84
2023/09/14 07:58:35;;;;;;;14.13;3.22;;;13.90;1.00;;;;;;4954658;28;20453;-84
2023/09/14 08:01:01;;;;;;;6.55;2.00;;;14.00;1.00;;;;;;4956415;28;20418;-84
2023/09/14 08:03:27;;;;;;;27.05;4.65;;;14.20;1.00;;;;;;4955864;28;20200;-85
2023/09/14 08:05:53;;;;;;;40.90;6.60;;;14.40;1.00;;;;;;4955328;28;20181;-85
2023/09/14 08:08:19;;;;;;;7.60;1.98;;;14.60;1.00;;;;;;4956148;28;20184;-85
2023/09/14 08:10:52;;;;;;;8.70;2.17;;;14.70;1.00;;;;;;4956322;28;20227;-84
2023/09/14 08:13:19;;;;;;;5.85;1.80;;;14.70;1.00;;;;;;4972204;28;20204;-84
2023/09/14 08:15:45;;;;;;;6.68;2.05;;;14.70;1.00;;;;;;4955039;28;20359;-84
2023/09/14 08:18:11;;;;;;;4.75;1.95;;;14.70;1.00;;;;;;4955213;28;20268;-84
2023/09/14 08:20:44;;;;;;;4.28;1.60;;;14.80;1.00;;;;;;4954711;28;20316;-85
2023/09/14 08:23:15;;;;;;;5.00;1.50;;;14.80;1.00;;;;;;4954797;28;20255;-84
2023/09/14 08:25:43;;;;;;;4.22;1.40;;;14.90;1.00;;;;;;4954837;28;20177;-84
2023/09/14 08:28:17;;;;;;;7.95;1.63;;;14.80;1.00;;;;;;4954983;28;20191;-85
2023/09/14 08:30:44;;;;;;;4.05;1.38;;;14.80;1.00;;;;;;4944029;28;20650;-85
2023/09/14 08:33:13;;;;;;;2.45;1.20;;;14.80;1.00;;;;;;4955492;28;20243;-84
2023/09/14 08:35:39;;;;;;;3.78;1.33;;;14.90;1.00;;;;;;4955722;28;20209;-85
2023/09/14 08:38:06;;;;;;;4.53;1.35;;;14.90;1.00;;;;;;4955663;28;20657;-85
2023/09/14 08:40:33;;;;;;;7.32;1.60;;;14.90;1.00;;;;;;4956532;28;20189;-84
2023/09/14 08:43:00;;;;;;;2.13;1.17;;;14.90;1.00;;;;;;4955928;28;20189;-84
2023/09/14 08:45:29;;;;;;;2.80;1.13;;;15.00;1.00;;;;;;4954966;28;20607;-84
2023/09/14 08:47:55;;;;;;;4.07;1.00;;;15.00;1.00;;;;;;4972869;28;20188;-84
2023/09/14 08:50:24;;;;;;;4.57;1.20;;;15.00;1.00;;;;;;4955674;28;20192;-84
2023/09/14 08:52:50;;;;;;;3.58;1.10;;;15.10;1.00;;;;;;4946020;28;20232;-85
2023/09/14 08:55:18;;;;;;;4.45;1.38;;;15.10;1.00;;;;;;4953569;28;20192;-85
2023/09/14 08:57:45;;;;;;;4.50;1.48;;;15.20;1.00;;;;;;4953968;28;20589;-84
2023/09/14 09:00:15;;;;;;;6.10;1.70;;;15.30;1.00;;;;;;4943960;28;20542;-84
2023/09/14 09:02:52;;;;;;;5.85;1.27;;;15.20;1.00;;;;;;4970509;28;20181;-84
2023/09/14 09:05:19;;;;;;;3.60;1.35;;;15.30;1.00;;;;;;4954756;28;20180;-84
2023/09/14 09:07:48;;;;;;;4.00;1.10;;;15.40;1.00;;;;;;4954673;28;20181;-83
2023/09/14 09:10:13;;;;;;;3.72;1.33;;;15.40;1.00;;;;;;4969565;28;20189;-84
2023/09/14 09:12:39;;;;;;;2.83;1.55;;;15.50;1.00;;;;;;4955045;28;20865;-84
2023/09/14 09:15:07;;;;;;;4.70;1.20;;;15.50;1.00;;;;;;4954768;28;20824;-84
2023/09/14 09:17:39;;;;;;;4.50;1.20;;;15.70;1.00;;;;;;4972105;28;20176;-85
2023/09/14 09:20:16;;;;;;;5.82;1.10;;;15.80;1.00;;;;;;4972441;28;20665;-84
2023/09/14 09:22:45;;;;;;;2.97;1.10;;;15.80;1.00;;;;;;4965097;28;20189;-84
2023/09/14 09:25:12;;;;;;;5.22;1.10;;;15.80;99.90;;;;;;4954307;28;20189;-85
2023/09/14 09:27:41;;;;;;;2.88;1.20;;;15.90;1.00;;;;;;4972045;28;20240;-84
2023/09/14 09:30:08;;;;;;;7.43;1.15;;;16.00;1.00;;;;;;4954595;28;20188;-84
2023/09/14 09:32:38;;;;;;;3.20;1.13;;;16.10;99.90;;;;;;4954356;28;20200;-85
2023/09/14 09:35:19;;;;;;;3.03;1.05;;;16.20;99.90;;;;;;4968825;28;20752;-84
2023/09/14 09:37:46;;;;;;;6.63;1.40;;;16.40;99.90;;;;;;4979110;28;20180;-82
2023/09/14 09:40:17;;;;;;;5.45;1.45;;;16.40;99.90;;;;;;4965823;28;20185;-81
2023/09/14 09:42:44;;;;;;;4.18;1.05;;;16.30;99.90;;;;;;4965803;28;20630;-83
2023/09/14 09:45:11;;;;;;;4.40;1.15;;;16.20;99.90;;;;;;4962442;28;20192;-83
2023/09/14 09:47:37;;;;;;;5.15;1.30;;;16.10;99.90;;;;;;4977170;28;20275;-86
2023/09/14 09:50:14;;;;;;;6.55;1.10;;;16.20;99.90;;;;;;4956053;28;20181;-84
2023/09/14 09:52:41;;;;;;;3.30;0.98;;;16.10;99.90;;;;;;4952507;28;20208;-84
2023/09/14 09:55:15;;;;;;;4.82;0.77;;;16.00;99.90;;;;;;4951821;28;20213;-84
2023/09/14 09:57:52;;;;;;;3.33;1.02;;;16.10;99.90;;;;;;4952657;28;20267;-85
2023/09/14 10:00:19;;;;;;;2.08;1.00;;;16.00;99.90;;;;;;4946416;28;20232;-84
2023/09/14 10:02:52;;;;;;;4.45;0.90;;;16.20;99.90;;;;;;4954611;28;20638;-84
2023/09/14 10:05:30;;;;;;;3.33;1.10;;;16.40;99.90;;;;;;4970782;28;20263;-84
2023/09/14 10:08:00;;;;;;;5.00;1.20;;;16.50;99.90;;;;;;4954629;28;20712;-84
2023/09/14 10:10:27;;;;;;;3.90;1.00;;;16.50;99.90;;;;;;4971776;28;20282;-84
2023/09/14 10:12:54;;;;;;;4.30;1.08;;;16.50;99.90;;;;;;4953960;28;20212;-84
2023/09/14 10:15:20;;;;;;;4.18;1.10;;;16.70;99.90;;;;;;4954439;28;20567;-84
2023/09/14 10:17:52;;;;;;;4.25;1.27;;;16.80;99.90;;;;;;4969391;28;20560;-84
2023/09/14 10:20:19;;;;;;;4.53;1.17;;;17.10;99.90;;;;;;4952628;28;20180;-84
2023/09/14 10:22:47;;;;;;;1.77;0.70;;;17.10;99.90;;;;;;4965868;28;20191;-83
2023/09/14 10:25:12;;;;;;;3.30;1.15;;;17.20;99.90;;;;;;4953007;28;20188;-83
2023/09/14 10:27:39;;;;;;;3.80;0.80;;;17.10;99.90;;;;;;4953380;28;20236;-83
2023/09/14 10:30:07;;;;;;;4.10;0.80;;;17.10;99.90;;;;;;4954560;28;20192;-84
2023/09/14 10:32:38;;;;;;;3.22;0.75;;;17.10;99.90;;;;;;4953839;28;20295;-83
2023/09/14 10:35:04;;;;;;;3.63;0.90;;;17.00;99.90;;;;;;4953214;28;20212;-84
2023/09/14 10:37:30;;;;;;;4.88;1.00;;;16.80;99.90;;;;;;4952557;28;20192;-84
2023/09/14 10:39:58;;;;;;;4.45;0.90;;;16.60;99.90;;;;;;4951361;28;20200;-84
2023/09/14 10:42:24;;;;;;;3.70;0.85;;;16.80;99.90;;;;;;4951013;28;20189;-84
2023/09/14 10:44:50;;;;;;;2.85;0.82;;;16.70;99.90;;;;;;4953798;28;20827;-84
2023/09/14 10:47:20;;;;;;;2.80;0.80;;;16.70;99.90;;;;;;4954060;28;20189;-84
2023/09/14 10:49:48;;;;;;;2.90;0.68;;;16.80;99.90;;;;;;4951341;28;20220;-84
2023/09/14 10:52:26;;;;;;;4.72;0.95;;;16.60;99.90;;;;;;4953835;28;20673;-84
2023/09/14 10:54:52;;;;;;;4.95;0.80;;;16.90;99.90;;;;;;4969609;28;20215;-83
2023/09/14 10:57:25;;;;;;;3.90;1.00;;;17.00;99.90;;;;;;4953679;28;20548;-83
2023/09/14 10:59:57;;;;;;;4.47;0.75;;;17.00;99.90;;;;;;4971200;28;20231;-84
2023/09/14 11:02:45;;;;;;;4.28;1.55;;;16.80;99.90;;;;;;4953538;28;20196;-83
2023/09/14 11:05:11;;;;;;;5.28;1.05;;;16.80;99.90;;;;;;4953502;28;20220;-83
2023/09/14 11:07:39;;;;;;;3.22;0.65;;;16.60;90.90;;;;;;4953941;28;20185;-82
2023/09/14 11:10:07;;;;;;;4.45;1.20;;;16.60;98.50;;;;;;4957158;28;20204;-83
2023/09/14 11:12:33;;;;;;;5.75;1.20;;;16.50;99.90;;;;;;4974780;28;20201;-82
2023/09/14 11:15:15;;;;;;;5.03;0.90;;;16.40;94.20;;;;;;4955368;28;20219;-82
2023/09/14 11:17:45;;;;;;;2.97;0.70;;;16.50;99.90;;;;;;4973124;28;20181;-82
2023/09/14 11:20:20;;;;;;;4.15;0.80;;;16.60;99.90;;;;;;4965430;28;20219;-82
2023/09/14 11:22:48;;;;;;;3.22;0.90;;;16.60;97.60;;;;;;4965949;28;20195;-82
2023/09/14 11:25:26;;;;;;;3.40;1.17;;;16.60;99.90;;;;;;4974052;28;20176;-82
2023/09/14 11:27:52;;;;;;;4.03;1.00;;;16.80;99.20;;;;;;4965862;28;20180;-81
2023/09/14 11:30:20;;;;;;;3.90;0.98;;;16.90;82.70;;;;;;4958214;28;20344;-83
2023/09/14 11:32:47;;;;;;;5.68;1.10;;;17.10;84.90;;;;;;4957094;28;20268;-82
2023/09/14 11:35:13;;;;;;;5.10;1.10;;;17.20;90.80;;;;;;4956557;28;20559;-83
2023/09/14 11:37:42;;;;;;;5.10;1.00;;;17.20;96.30;;;;;;4974280;28;20267;-83
2023/09/14 11:40:15;;;;;;;2.33;1.00;;;17.10;92.30;;;;;;4956829;28;20185;-83
2023/09/14 11:43:20;;;;;;;3.00;0.90;;;16.90;83.50;;;;;;4974077;28;20180;-83
2023/09/14 11:45:48;;;;;;;2.83;1.23;;;16.80;77.90;;;;;;4972916;28;20260;-83
2023/09/14 11:48:14;;;;;;;4.68;1.08;;;16.80;55.60;;;;;;4956599;28;20187;-83
2023/09/14 11:50:50;;;;;;;3.85;1.05;;;16.90;96.50;;;;;;4956818;28;20572;-83
2023/09/14 11:53:18;;;;;;;3.55;0.90;;;16.80;90.30;;;;;;4971247;28;20283;-83
2023/09/14 11:55:45;;;;;;;4.28;0.82;;;16.90;54.70;;;;;;4970275;28;20181;-85
2023/09/14 11:58:12;;;;;;;4.65;1.73;;;16.90;59.00;;;;;;4956242;28;20542;-83
2023/09/14 12:00:45;;;;;;;2.00;0.60;;;17.10;56.90;;;;;;4956253;28;20205;-84
2023/09/14 12:03:11;;;;;;;3.35;0.90;;;17.20;98.00;;;;;;4956115;28;20215;-82
2023/09/14 12:05:37;;;;;;;3.90;1.15;;;17.20;87.60;;;;;;4955047;28;20314;-84
2023/09/14 12:08:10;;;;;;;3.80;0.77;;;17.20;85.10;;;;;;4953352;28;20239;-84
2023/09/14 12:10:36;;;;;;;3.25;1.02;;;17.20;57.50;;;;;;4952750;28;20208;-83
2023/09/14 12:13:12;;;;;;;4.10;1.23;;;17.00;51.00;;;;;;4952329;28;20692;-83
2023/09/14 12:15:38;;;;;;;2.85;1.05;;;17.10;36.20;;;;;;4953111;28;20699;-84
2023/09/14 12:18:03;;;;;;;3.85;1.10;;;17.00;38.50;;;;;;4969352;28;20189;-84
2023/09/14 12:20:29;;;;;;;2.33;0.93;;;17.10;29.00;;;;;;4952148;28;20200;-83
2023/09/14 12:22:56;;;;;;;2.97;0.90;;;17.00;14.90;;;;;;4953604;28;20574;-83
2023/09/14 12:25:22;;;;;;;3.65;0.98;;;16.90;1.00;;;;;;4968974;28;20189;-83
2023/09/14 12:27:48;;;;;;;1.83;1.00;;;16.90;1.00;;;;;;4955907;28;20717;-83
2023/09/14 12:30:16;;;;;;;2.88;1.13;;;17.00;10.30;;;;;;4972413;28;20802;-83
2023/09/14 12:32:42;;;;;;;3.30;0.70;;;17.10;10.60;;;;;;4972354;28;20213;-83
2023/09/14 12:35:09;;;;;;;4.97;1.23;;;17.20;1.00;;;;;;4956910;28;20215;-84
2023/09/14 12:37:35;;;;;;;1.92;0.73;;;17.20;9.80;;;;;;4953002;28;20216;-84
2023/09/14 12:40:06;;;;;;;3.90;0.95;;;17.20;2.80;;;;;;4952029;28;20661;-85
2023/09/14 12:42:33;;;;;;;5.60;1.00;;;17.10;1.00;;;;;;4953358;28;20276;-85
2023/09/14 12:44:59;;;;;;;3.85;1.00;;;17.10;1.00;;;;;;4972359;28;20217;-85
2023/09/14 12:47:25;;;;;;;3.22;1.00;;;17.20;1.00;;;;;;4953403;28;20219;-84
2023/09/14 12:49:58;;;;;;;2.67;0.70;;;17.20;1.00;;;;;;4954194;28;20291;-84